createdAt,value
2019-02-28T08:30:43.414Z,57.19
2019-02-28T08:33:16.490Z,56.75
2019-02-28T08:35:49.279Z,57.40
2019-02-28T08:38:20.595Z,57.10
2019-02-28T08:40:52.064Z,57.20
2019-02-28T08:43:27.037Z,57.26
2019-02-28T08:45:56.154Z,56.39
2019-02-28T08:48:31.597Z,57.04
2019-02-28T08:51:00.236Z,56.98
2019-02-28T08:53:32.461Z,56.79
2019-02-28T08:56:03.622Z,57.67
2019-02-28T08:58:37.748Z,57.77
2019-02-28T09:01:07.815Z,58.16
2019-02-28T09:03:40.617Z,58.66
2019-02-28T09:06:11.852Z,58.77
2019-02-28T09:08:46.184Z,59.32
2019-02-28T09:11:20.990Z,60.24
2019-02-28T09:13:53.939Z,59.87
2019-02-28T09:16:27.295Z,60.81
2019-02-28T09:19:00.886Z,60.37
2019-02-28T09:21:33.298Z,60.91
2019-02-28T09:24:05.560Z,60.13
2019-02-28T09:26:37.472Z,59.63
2019-02-28T09:29:10.243Z,59.39
2019-02-28T09:31:43.141Z,60.35
2019-02-28T09:34:14.396Z,59.97
2019-02-28T09:36:45.618Z,59.41
2019-02-28T09:39:20.291Z,59.64
2019-02-28T09:41:58.697Z,59.83
2019-02-28T09:44:34.427Z,59.97
2019-02-28T09:47:05.864Z,60.15
2019-02-28T09:49:44.280Z,60.61
2019-02-28T09:52:18.951Z,60.38
2019-02-28T09:54:59.232Z,61.31
2019-02-28T09:57:34.356Z,61.98
2019-02-28T10:00:23.156Z,62.33
2019-02-28T10:02:56.586Z,62.27
2019-02-28T10:05:31.433Z,61.95
2019-02-28T10:08:09.409Z,61.10
2019-02-28T10:10:42.428Z,60.65
2019-02-28T10:13:18.685Z,59.75
2019-02-28T10:15:52.433Z,58.87
2019-02-28T10:18:24.871Z,59.51
2019-02-28T10:20:59.106Z,59.01
2019-02-28T10:23:31.734Z,58.78
2019-02-28T10:26:07.067Z,59.00
2019-02-28T10:32:24.521Z,58.71
2019-02-28T10:35:05.176Z,59.50
2019-02-28T10:37:46.247Z,57.19
2019-02-28T10:40:25.484Z,56.49
2019-02-28T10:43:04.872Z,56.47
2019-02-28T10:45:41.986Z,56.42
2019-02-28T10:48:16.122Z,56.52
2019-02-28T10:50:53.102Z,56.47
2019-02-28T10:53:31.063Z,56.82
2019-02-28T10:56:03.634Z,56.55
2019-02-28T10:58:37.484Z,56.80
2019-02-28T11:01:12.362Z,56.75
2019-02-28T11:03:43.752Z,56.73
2019-02-28T11:06:16.705Z,56.05
2019-02-28T11:08:48.299Z,56.05
2019-02-28T11:11:21.222Z,56.06
2019-02-28T11:13:55.013Z,55.78
2019-02-28T11:16:29.245Z,55.96
2019-02-28T11:19:01.696Z,56.50
2019-02-28T11:21:37.092Z,56.53
2019-02-28T11:24:09.049Z,55.96
2019-02-28T11:26:44.879Z,55.91
2019-02-28T11:29:17.732Z,55.58
2019-02-28T11:31:50.574Z,55.56
2019-02-28T11:34:22.539Z,54.72
2019-02-28T11:36:56.089Z,54.53
2019-02-28T11:39:30.512Z,52.52
2019-02-28T11:42:01.942Z,51.26
2019-02-28T11:44:34.411Z,51.34
2019-02-28T11:47:08.420Z,49.74
2019-02-28T11:49:39.430Z,48.91
2019-02-28T11:52:11.105Z,48.69
2019-02-28T11:54:45.170Z,48.85
2019-02-28T11:57:17.199Z,48.27
2019-02-28T11:59:49.850Z,48.06
2019-02-28T12:02:26.237Z,48.88
2019-02-28T12:05:00.594Z,48.25
2019-02-28T12:07:35.681Z,48.84
2019-02-28T12:10:09.453Z,48.62
2019-02-28T12:12:44.681Z,48.59
2019-02-28T12:15:20.483Z,48.35
2019-02-28T12:17:52.615Z,49.44
2019-02-28T12:20:27.456Z,48.38
2019-02-28T12:24:29.411Z,49.14
2019-02-28T12:27:06.205Z,48.90
2019-02-28T12:29:40.793Z,49.46
2019-02-28T12:32:14.917Z,49.81
2019-02-28T12:34:50.852Z,50.54
2019-02-28T12:37:34.443Z,50.30
2019-02-28T12:40:10.415Z,50.90
2019-02-28T12:42:42.116Z,51.34
2019-02-28T12:45:24.443Z,52.05
2019-02-28T12:47:55.425Z,52.04
2019-02-28T12:50:29.468Z,51.94
2019-02-28T12:53:01.252Z,52.16
2019-02-28T12:55:35.426Z,52.23
2019-02-28T12:58:08.076Z,52.56
2019-02-28T13:00:41.084Z,52.30
2019-02-28T13:03:12.666Z,52.17
2019-02-28T13:05:48.133Z,52.54
2019-02-28T13:08:19.495Z,52.27
2019-02-28T13:10:50.767Z,52.00
2019-02-28T13:13:27.415Z,51.72
2019-02-28T13:15:58.293Z,51.62
2019-02-28T13:18:32.443Z,51.65
2019-02-28T13:21:06.193Z,52.04
2019-02-28T13:23:38.761Z,51.87
2019-02-28T13:26:10.032Z,52.19
2019-02-28T13:28:41.525Z,52.29
2019-02-28T13:33:14.982Z,52.27
2019-02-28T13:35:47.951Z,52.15
2019-02-28T13:38:19.952Z,52.29
2019-02-28T13:40:51.278Z,52.13
2019-02-28T13:43:22.919Z,51.98
2019-02-28T13:45:55.856Z,51.44
2019-02-28T13:48:33.408Z,51.75
2019-02-28T13:51:08.006Z,51.80
2019-02-28T13:53:39.759Z,51.70
2019-02-28T13:56:11.202Z,52.46
2019-02-28T13:58:45.703Z,52.02
2019-02-28T14:01:20.376Z,51.98
2019-02-28T14:03:53.877Z,52.03
2019-02-28T14:06:25.302Z,51.67
2019-02-28T14:08:58.037Z,52.05
2019-02-28T14:11:30.779Z,51.66
2019-02-28T14:14:06.264Z,51.47
2019-02-28T14:16:38.588Z,51.52
2019-02-28T14:19:11.747Z,51.49
2019-02-28T14:21:44.296Z,52.00
2019-02-28T14:24:15.542Z,52.73
2019-02-28T14:26:49.514Z,53.04
2019-02-28T14:29:22.461Z,51.99
2019-02-28T14:31:53.751Z,51.74
2019-02-28T14:34:26.208Z,50.85
2019-02-28T14:36:58.550Z,50.23
2019-02-28T14:39:32.108Z,50.15
2019-02-28T14:42:06.689Z,50.05
2019-02-28T14:44:37.467Z,50.05
2019-02-28T14:47:08.698Z,49.63
2019-02-28T14:49:43.836Z,49.68
2019-02-28T14:52:15.695Z,49.68
2019-02-28T14:54:47.143Z,50.01
2019-02-28T14:57:19.196Z,49.85
2019-02-28T14:59:51.852Z,49.67
2019-02-28T15:02:28.756Z,49.51
2019-02-28T15:05:01.995Z,49.67
2019-02-28T15:07:38.696Z,49.41
2019-02-28T15:10:15.244Z,49.55
2019-02-28T15:12:46.564Z,49.68
2019-02-28T15:15:20.310Z,49.72
2019-02-28T15:17:51.581Z,49.80
2019-02-28T15:20:22.824Z,49.98
2019-02-28T15:22:55.838Z,50.32
2019-02-28T15:25:29.610Z,50.20
2019-02-28T15:28:01.988Z,50.40
2019-02-28T15:30:35.562Z,50.54
2019-02-28T15:33:10.994Z,50.81
2019-02-28T15:35:42.294Z,50.71
2019-02-28T15:38:13.976Z,50.84
2019-02-28T15:40:47.240Z,50.95
2019-02-28T15:43:20.102Z,51.20
2019-02-28T15:45:52.930Z,51.14
2019-02-28T15:48:25.311Z,51.35
2019-02-28T15:50:56.580Z,51.52
2019-02-28T15:53:28.863Z,51.60
2019-02-28T15:56:00.136Z,51.73
2019-02-28T15:58:31.991Z,51.78
2019-02-28T16:01:04.076Z,51.95
2019-02-28T16:03:35.224Z,51.62
2019-02-28T16:06:06.542Z,51.74
2019-02-28T16:08:37.711Z,52.30
2019-02-28T16:11:08.972Z,52.55
2019-02-28T16:13:40.621Z,52.89
2019-02-28T16:16:11.799Z,53.10
2019-02-28T16:18:43.987Z,53.55
2019-02-28T16:21:16.067Z,54.17
2019-02-28T16:23:48.458Z,54.55
2019-02-28T16:26:21.775Z,54.94
2019-02-28T16:28:54.203Z,55.48
2019-02-28T16:31:25.884Z,55.82
2019-02-28T16:34:07.946Z,55.85
2019-02-28T16:36:32.220Z,55.90
2019-02-28T16:39:04.599Z,55.75
2019-02-28T16:41:36.940Z,56.17
2019-02-28T16:44:08.821Z,56.35
2019-02-28T16:46:40.097Z,56.70
2019-02-28T16:49:14.556Z,56.63
2019-02-28T16:51:48.845Z,57.26
2019-02-28T16:54:22.579Z,57.19
2019-02-28T16:56:54.052Z,56.87
2019-02-28T16:59:28.399Z,57.15
2019-02-28T17:02:00.909Z,57.54
2019-02-28T17:04:41.375Z,58.03
2019-02-28T17:07:20.358Z,57.95
2019-02-28T17:09:52.417Z,58.44
2019-02-28T17:12:31.367Z,58.17
2019-02-28T17:19:46.730Z,58.94
2019-02-28T17:22:19.530Z,58.95
2019-02-28T17:24:51.348Z,59.02
2019-02-28T17:27:24.186Z,58.70
2019-02-28T17:30:01.704Z,59.00
2019-02-28T17:32:36.798Z,59.31
2019-02-28T17:35:09.073Z,59.55
2019-02-28T17:37:42.755Z,59.75
2019-02-28T17:40:15.612Z,60.11
2019-02-28T17:42:49.834Z,60.09
2019-02-28T17:45:23.577Z,60.32
2019-02-28T17:48:15.775Z,60.73
2019-02-28T17:50:56.003Z,61.03
2019-02-28T17:53:48.251Z,61.55
2019-02-28T17:56:23.791Z,62.06
2019-02-28T17:59:04.476Z,62.33
2019-02-28T18:01:55.817Z,61.89
2019-02-28T18:04:56.017Z,61.29
2019-02-28T18:07:30.649Z,61.04
2019-02-28T18:10:04.991Z,61.79
2019-02-28T18:12:44.340Z,62.25
2019-02-28T18:15:23.416Z,62.48
2019-02-28T18:18:15.315Z,62.68
2019-02-28T18:21:00.702Z,62.83
2019-02-28T18:24:00.096Z,63.23
2019-02-28T18:27:11.602Z,63.33
2019-02-28T18:30:02.285Z,63.20
2019-02-28T18:32:34.065Z,63.44
2019-02-28T18:35:08.269Z,63.89
2019-02-28T18:37:39.570Z,64.51
2019-02-28T18:40:10.840Z,64.83
2019-02-28T18:42:42.684Z,64.84
2019-02-28T18:45:15.706Z,65.03
2019-02-28T18:47:47.873Z,65.04
2019-02-28T18:50:19.317Z,65.15
2019-02-28T18:52:50.514Z,65.19
2019-02-28T18:55:21.936Z,65.48
2019-02-28T18:57:53.143Z,65.42
2019-02-28T19:00:24.915Z,65.19
2019-02-28T19:02:56.153Z,66.11
2019-02-28T19:05:27.400Z,66.27
2019-02-28T19:07:58.599Z,66.74
2019-02-28T19:10:29.808Z,66.66
2019-02-28T19:13:01.133Z,66.13
2019-02-28T19:15:32.589Z,66.16
2019-02-28T19:18:05.380Z,66.55
2019-02-28T19:20:36.617Z,66.46
2019-02-28T19:23:07.892Z,66.45
2019-02-28T19:25:39.380Z,66.31
2019-02-28T19:28:14.840Z,66.74
2019-02-28T19:30:47.770Z,66.89
2019-02-28T19:33:19.083Z,66.71
2019-02-28T19:35:50.269Z,67.11
2019-02-28T19:38:21.584Z,66.76
2019-02-28T19:40:52.781Z,66.78
2019-02-28T19:43:23.978Z,66.82
2019-02-28T19:45:56.440Z,66.81
2019-02-28T19:48:27.648Z,66.77
2019-02-28T19:50:58.926Z,66.86
2019-02-28T19:53:30.129Z,66.75
2019-02-28T19:56:02.987Z,66.73
2019-02-28T19:58:35.313Z,66.93
2019-02-28T20:01:06.756Z,67.31
2019-02-28T20:03:38.008Z,67.49
2019-02-28T20:06:10.412Z,67.83
2019-02-28T20:08:42.417Z,68.24
2019-02-28T20:11:13.691Z,68.46
2019-02-28T20:13:45.175Z,68.64
2019-02-28T20:16:18.643Z,68.89
2019-02-28T20:18:50.499Z,69.08
2019-02-28T20:21:21.930Z,69.21
2019-02-28T20:23:53.144Z,69.20
2019-02-28T20:26:24.390Z,69.25
2019-02-28T20:28:55.594Z,69.07
2019-02-28T20:31:27.235Z,69.09
2019-02-28T20:34:34.103Z,69.42
2019-02-28T20:37:06.517Z,69.60
2019-02-28T20:39:38.060Z,69.75
2019-02-28T20:42:09.971Z,69.93
2019-02-28T20:44:42.404Z,70.00
2019-02-28T20:47:14.673Z,70.06
2019-02-28T20:49:45.934Z,70.04
2019-02-28T20:52:20.362Z,70.07
2019-02-28T20:54:51.806Z,69.87
2019-02-28T20:57:23.090Z,69.73
2019-02-28T20:59:54.365Z,69.82
2019-02-28T21:02:25.585Z,69.96
2019-02-28T21:04:57.873Z,70.03
2019-02-28T21:07:29.100Z,70.08
2019-02-28T21:10:00.325Z,70.34
2019-02-28T21:12:31.946Z,70.49
2019-02-28T21:15:03.198Z,70.43
2019-02-28T21:17:34.511Z,70.31
2019-02-28T21:20:12.298Z,70.24
2019-02-28T21:22:43.688Z,70.24
2019-02-28T21:25:18.220Z,70.21
2019-02-28T21:27:51.519Z,70.19
2019-02-28T21:30:26.320Z,70.21
2019-02-28T21:32:57.601Z,70.45
2019-02-28T21:35:28.796Z,70.24
2019-02-28T21:38:00.047Z,70.42
2019-02-28T21:40:31.315Z,70.48
2019-02-28T21:43:02.681Z,70.29
2019-02-28T21:45:33.978Z,70.14
2019-02-28T21:48:05.136Z,69.81
2019-02-28T21:50:36.403Z,69.71
2019-02-28T21:53:08.583Z,69.59
2019-02-28T21:55:39.983Z,69.79
2019-02-28T21:58:11.231Z,69.74
2019-02-28T22:00:42.626Z,70.13
2019-02-28T22:03:13.832Z,70.63
2019-02-28T22:05:47.410Z,70.99
2019-02-28T22:08:19.162Z,71.14
2019-02-28T22:10:50.384Z,71.33
2019-02-28T22:13:24.208Z,71.74
2019-02-28T22:15:56.400Z,71.54
2019-02-28T22:18:27.596Z,71.43
2019-02-28T22:21:00.362Z,71.16
2019-02-28T22:23:33.133Z,71.07
2019-02-28T22:26:04.412Z,70.85
2019-02-28T22:28:35.719Z,70.29
2019-02-28T22:31:17.755Z,70.02
2019-02-28T22:33:51.836Z,70.00
2019-02-28T22:36:24.594Z,69.68
2019-02-28T22:38:56.828Z,69.24
2019-02-28T22:41:28.043Z,69.08
2019-02-28T22:43:59.325Z,69.19
2019-02-28T22:46:30.572Z,69.15
2019-02-28T22:49:01.817Z,68.93
2019-02-28T22:51:34.549Z,68.75
2019-02-28T22:54:05.774Z,68.49
2019-02-28T22:56:37.448Z,68.02
2019-02-28T23:01:47.006Z,67.66
2019-02-28T23:04:20.246Z,67.66
2019-02-28T23:06:51.646Z,67.77
2019-02-28T23:09:22.792Z,68.28
2019-02-28T23:11:55.582Z,67.63
2019-02-28T23:14:28.288Z,67.75
2019-02-28T23:16:59.455Z,67.12
2019-02-28T23:19:30.681Z,66.92
2019-02-28T23:22:02.963Z,66.82
2019-02-28T23:24:34.681Z,66.23
2019-02-28T23:27:17.824Z,66.56
2019-02-28T23:30:01.422Z,65.89
2019-02-28T23:32:46.468Z,64.93
2019-02-28T23:35:21.016Z,64.64
2019-02-28T23:37:53.999Z,65.02
2019-02-28T23:40:25.192Z,65.31
2019-02-28T23:42:57.223Z,64.93
2019-02-28T23:45:28.456Z,64.02
2019-02-28T23:47:59.666Z,63.95
2019-02-28T23:50:30.803Z,63.95
2019-02-28T23:53:12.641Z,64.38
2019-02-28T23:55:44.386Z,64.31
2019-02-28T23:58:17.454Z,64.73
